Time;durP1;ratioP1;P1;durP2;ratioP2;P2;SDS_P1;SDS_P2;PMS_P1;PMS_P2;Temp;Humidity;BMP_temperature;BMP_pressure;BME280_temperature;BME280_humidity;BME280_pressure;Samples;Min_cycle;Max_cycle;Signal;HPM_P1;HPM_P2
2023/03/05 00:02:03;;;;;;;3.65;0.77;;;3.50;99.90;;;;;;5094359;28;20068;-65
2023/03/05 00:04:29;;;;;;;4.13;0.70;;;3.50;99.90;;;;;;5094458;28;20071;-65
2023/03/05 00:06:54;;;;;;;3.88;0.70;;;3.50;99.90;;;;;;5094326;28;20475;-65
2023/03/05 00:09:20;;;;;;;1.65;0.40;;;3.50;99.90;;;;;;5094348;28;20069;-64
2023/03/05 00:11:46;;;;;;;1.65;0.50;;;3.40;99.90;;;;;;5094267;28;20127;-65
2023/03/05 00:14:12;;;;;;;2.55;0.75;;;3.40;99.90;;;;;;5094275;28;20119;-64
2023/03/05 00:16:38;;;;;;;0.68;0.30;;;3.00;99.90;;;;;;5093803;28;20048;-65
2023/03/05 00:19:04;;;;;;;1.38;0.50;;;3.40;99.90;;;;;;5094121;28;20046;-64
2023/03/05 00:21:38;;;;;;;3.20;0.40;;;3.30;99.90;;;;;;5092577;28;20115;-65
2023/03/05 00:24:22;;;;;;;1.70;0.50;;;3.40;99.90;;;;;;5094034;28;20036;-65
2023/03/05 00:26:48;;;;;;;0.93;0.40;;;3.30;99.90;;;;;;5094021;28;20093;-65
2023/03/05 00:29:20;;;;;;;0.63;0.45;;;3.30;99.90;;;;;;5093987;28;20051;-65
2023/03/05 00:31:46;;;;;;;3.22;0.60;;;3.30;99.90;;;;;;5093961;28;20083;-64
2023/03/05 00:34:14;;;;;;;0.30;0.30;;;3.30;99.90;;;;;;5093926;28;20130;-65
2023/03/05 00:36:43;;;;;;;2.83;0.70;;;3.30;99.90;;;;;;5092266;28;20048;-65
2023/03/05 00:39:09;;;;;;;0.73;0.45;;;3.20;99.90;;;;;;5093833;28;20115;-65
2023/03/05 00:41:35;;;;;;;1.50;0.50;;;3.30;99.90;;;;;;5093800;28;20039;-65
2023/03/05 00:44:01;;;;;;;1.33;0.30;;;3.20;99.90;;;;;;5092408;28;20052;-65
2023/03/05 00:46:27;;;;;;;0.35;0.32;;;3.60;99.90;;;;;;5091963;28;20514;-65
2023/03/05 00:48:53;;;;;;;3.67;0.73;;;3.20;99.90;;;;;;5093653;28;20381;-65
2023/03/05 00:51:19;;;;;;;1.77;0.77;;;3.20;99.90;;;;;;5092114;28;20144;-65
2023/03/05 00:53:45;;;;;;;3.97;0.57;;;3.20;99.90;;;;;;5092102;28;20119;-64
2023/03/05 00:56:11;;;;;;;0.55;0.40;;;3.30;99.90;;;;;;5093497;28;20396;-65
2023/03/05 00:58:36;;;;;;;2.17;0.45;;;3.20;99.90;;;;;;5093428;28;20139;-65
2023/03/05 01:01:03;;;;;;;2.95;0.90;;;3.30;99.90;;;;;;5093445;28;20042;-65
2023/03/05 01:03:30;;;;;;;0.60;0.50;;;3.30;99.90;;;;;;5093517;28;20471;-65
2023/03/05 01:05:56;;;;;;;0.35;0.35;;;3.30;99.90;;;;;;5093419;28;20040;-65
2023/03/05 01:08:22;;;;;;;5.05;1.10;;;3.20;99.90;;;;;;5109035;28;20050;-64
2023/03/05 01:10:48;;;;;;;1.77;0.63;;;3.30;99.90;;;;;;5093270;28;20035;-64
2023/03/05 01:13:13;;;;;;;1.30;0.40;;;3.20;99.90;;;;;;5091807;28;20096;-64
2023/03/05 01:15:39;;;;;;;1.00;0.43;;;3.20;99.90;;;;;;5093039;28;20055;-65
2023/03/05 01:18:05;;;;;;;2.15;0.40;;;2.90;99.90;;;;;;5093287;28;20050;-65
2023/03/05 01:20:31;;;;;;;2.10;0.52;;;3.20;99.90;;;;;;5093299;28;20368;-65
2023/03/05 01:22:58;;;;;;;0.98;0.57;;;3.20;99.90;;;;;;5093172;28;20472;-65
2023/03/05 01:25:24;;;;;;;0.45;0.40;;;3.20;99.90;;;;;;5093189;28;20545;-65
2023/03/05 01:27:49;;;;;;;0.70;0.70;;;3.20;99.90;;;;;;5091995;28;20506;-65
2023/03/05 01:30:15;;;;;;;0.88;0.30;;;3.20;99.90;;;;;;5092907;28;20040;-65
2023/03/05 01:32:41;;;;;;;1.38;0.82;;;3.20;99.90;;;;;;5092841;28;20036;-65
2023/03/05 01:35:08;;;;;;;2.47;0.47;;;3.20;99.90;;;;;;5093104;28;20056;-64
2023/03/05 01:37:33;;;;;;;0.65;0.40;;;3.20;99.90;;;;;;5092845;28;20492;-65
2023/03/05 01:39:59;;;;;;;1.45;0.60;;;3.20;99.90;;;;;;5092716;28;20044;-64
2023/03/05 01:42:25;;;;;;;1.55;0.57;;;3.20;99.90;;;;;;5108540;28;20040;-64
2023/03/05 01:45:09;;;;;;;5.68;0.52;;;3.20;99.90;;;;;;5091443;28;20071;-65
2023/03/05 01:47:36;;;;;;;2.83;0.88;;;3.20;99.90;;;;;;5091491;28;20048;-65
2023/03/05 01:50:04;;;;;;;2.42;0.40;;;3.20;99.90;;;;;;5092965;28;20032;-64
2023/03/05 01:52:33;;;;;;;6.25;0.43;;;3.20;99.90;;;;;;5092711;28;20091;-64
2023/03/05 01:55:20;;;;;;;4.78;0.85;;;3.20;99.90;;;;;;5091329;28;20043;-64
2023/03/05 01:57:52;;;;;;;0.70;0.63;;;3.20;99.90;;;;;;5092856;28;20044;-65
2023/03/05 02:00:40;;;;;;;5.68;1.00;;;3.10;99.90;;;;;;5096796;28;20081;-64
2023/03/05 02:03:09;;;;;;;1.30;0.35;;;3.10;99.90;;;;;;5096787;28;20085;-65
2023/03/05 02:05:37;;;;;;;1.92;0.60;;;3.00;99.90;;;;;;5096781;28;20040;-64
2023/03/05 02:08:07;;;;;;;0.38;0.30;;;3.00;99.90;;;;;;5096700;28;20040;-65
2023/03/05 02:10:35;;;;;;;1.10;0.40;;;2.90;99.90;;;;;;5095093;28;20052;-64
2023/03/05 02:13:05;;;;;;;0.38;0.30;;;2.80;99.90;;;;;;5096176;28;20138;-65
2023/03/05 02:15:32;;;;;;;5.38;0.50;;;2.80;99.90;;;;;;5096382;28;20043;-64
2023/03/05 02:17:58;;;;;;;5.85;0.57;;;2.70;99.90;;;;;;5096427;28;20055;-64
2023/03/05 02:20:27;;;;;;;1.67;0.73;;;2.70;99.90;;;;;;5096149;28;20040;-65
2023/03/05 02:22:53;;;;;;;0.63;0.50;;;2.40;99.90;;;;;;5096074;28;20085;-64
2023/03/05 02:25:28;;;;;;;0.45;0.40;;;2.60;99.90;;;;;;5096378;28;20035;-64
2023/03/05 02:28:01;;;;;;;1.48;1.05;;;2.60;99.90;;;;;;5096343;28;20119;-64
2023/03/05 02:30:27;;;;;;;1.40;0.77;;;2.40;99.90;;;;;;5096331;28;20044;-64
2023/03/05 02:32:53;;;;;;;4.38;0.40;;;2.50;99.90;;;;;;5096149;28;20497;-65
2023/03/05 02:35:19;;;;;;;0.40;0.30;;;2.50;99.90;;;;;;5096228;28;20040;-64
2023/03/05 02:37:44;;;;;;;0.52;0.38;;;2.40;99.90;;;;;;5094558;28;20048;-64
2023/03/05 02:40:12;;;;;;;2.83;1.00;;;2.30;99.90;;;;;;5111540;28;20081;-64
2023/03/05 02:42:37;;;;;;;2.20;0.47;;;2.50;99.90;;;;;;5096091;28;20111;-64
2023/03/05 02:45:04;;;;;;;1.05;0.65;;;2.30;99.90;;;;;;5095888;28;20501;-65
2023/03/05 02:47:30;;;;;;;3.88;0.43;;;2.50;99.90;;;;;;5094427;28;20105;-65
2023/03/05 02:49:56;;;;;;;5.22;0.70;;;2.60;99.90;;;;;;5094338;28;20075;-64
2023/03/05 02:52:22;;;;;;;0.90;0.70;;;2.40;99.90;;;;;;5094579;28;20437;-64
2023/03/05 02:54:49;;;;;;;1.10;0.40;;;2.50;99.90;;;;;;5095785;28;20054;-65
2023/03/05 02:57:15;;;;;;;2.28;0.70;;;2.20;99.90;;;;;;5095744;28;20522;-64
2023/03/05 02:59:41;;;;;;;3.17;0.70;;;2.50;99.90;;;;;;5095685;28;20036;-64
2023/03/05 03:02:06;;;;;;;4.65;0.95;;;2.50;99.90;;;;;;5095324;28;20153;-65
2023/03/05 03:04:32;;;;;;;1.92;0.77;;;2.60;99.90;;;;;;5111357;28;20040;-64
2023/03/05 03:06:58;;;;;;;0.73;0.57;;;2.50;99.90;;;;;;5095286;28;20047;-65
2023/03/05 03:09:24;;;;;;;2.72;0.60;;;2.60;99.90;;;;;;5093622;28;20494;-64
2023/03/05 03:11:50;;;;;;;0.60;0.50;;;2.60;99.90;;;;;;5095231;28;20066;-64
2023/03/05 03:14:15;;;;;;;1.55;0.40;;;2.70;99.90;;;;;;5095152;28;20449;-64
2023/03/05 03:16:41;;;;;;;0.75;0.47;;;2.70;99.90;;;;;;5094995;28;20052;-65
2023/03/05 03:19:07;;;;;;;0.60;0.38;;;2.70;99.90;;;;;;5095079;28;20395;-65
2023/03/05 03:21:32;;;;;;;2.72;0.52;;;2.60;99.90;;;;;;5095035;28;20107;-65
2023/03/05 03:23:58;;;;;;;0.95;0.50;;;2.70;99.90;;;;;;5095197;28;20086;-66
2023/03/05 03:26:23;;;;;;;1.65;0.65;;;2.80;99.90;;;;;;5093668;28;20138;-64
2023/03/05 03:28:49;;;;;;;1.60;0.52;;;2.70;99.90;;;;;;5110591;28;20048;-64
2023/03/05 03:31:15;;;;;;;1.73;0.73;;;2.80;99.90;;;;;;5095135;28;20032;-64
2023/03/05 03:33:41;;;;;;;2.63;0.60;;;2.70;99.90;;;;;;5095066;28;20620;-64
2023/03/05 03:36:07;;;;;;;4.97;0.70;;;2.70;99.90;;;;;;5110584;28;20075;-64
2023/03/05 03:38:32;;;;;;;1.80;0.75;;;2.80;99.90;;;;;;5094972;28;20119;-64
2023/03/05 03:40:58;;;;;;;0.68;0.50;;;2.80;99.90;;;;;;5094899;28;20454;-65
2023/03/05 03:43:24;;;;;;;0.40;0.40;;;2.70;99.90;;;;;;5094881;28;20032;-65
2023/03/05 03:45:49;;;;;;;2.45;0.52;;;2.80;99.90;;;;;;5094748;28;20032;-64
2023/03/05 03:48:15;;;;;;;0.52;0.52;;;2.70;99.90;;;;;;5110236;28;20040;-65
2023/03/05 03:50:41;;;;;;;3.58;0.70;;;2.70;99.90;;;;;;5094757;28;20040;-64
2023/03/05 03:53:08;;;;;;;1.83;0.57;;;2.50;99.90;;;;;;5093185;28;20048;-64
2023/03/05 03:55:34;;;;;;;0.63;0.43;;;2.60;99.90;;;;;;5094716;28;20059;-65
2023/03/05 03:58:00;;;;;;;2.15;0.40;;;2.70;99.90;;;;;;5094247;28;20411;-65
2023/03/05 04:00:26;;;;;;;1.63;0.77;;;2.60;99.90;;;;;;5094532;28;20043;-65
2023/03/05 04:02:51;;;;;;;5.38;0.60;;;2.50;99.90;;;;;;5094372;28;20044;-64
2023/03/05 04:05:17;;;;;;;1.42;0.40;;;2.60;99.90;;;;;;5110142;28;20048;-65
2023/03/05 04:07:44;;;;;;;1.10;0.63;;;2.50;99.90;;;;;;5094407;28;20032;-65
2023/03/05 04:10:10;;;;;;;2.05;0.90;;;2.40;99.90;;;;;;5094338;28;20407;-65
2023/03/05 04:12:36;;;;;;;0.68;0.30;;;2.50;99.90;;;;;;5094350;28;20028;-65
2023/03/05 04:15:02;;;;;;;1.20;0.57;;;2.30;99.90;;;;;;5094252;28;20032;-65
2023/03/05 04:17:28;;;;;;;6.60;0.70;;;2.40;99.90;;;;;;5093749;28;20048;-64
2023/03/05 04:19:53;;;;;;;1.85;0.43;;;2.60;99.90;;;;;;5094134;28;20044;-64
2023/03/05 04:22:19;;;;;;;1.23;0.60;;;2.20;99.90;;;;;;5093190;28;20152;-65
2023/03/05 04:24:44;;;;;;;1.30;0.70;;;2.30;99.90;;;;;;5109786;28;20106;-65
2023/03/05 04:27:10;;;;;;;2.63;0.50;;;2.40;99.90;;;;;;5093992;28;20035;-64
2023/03/05 04:29:36;;;;;;;2.38;0.35;;;2.40;99.90;;;;;;5092760;28;20039;-65
2023/03/05 04:32:02;;;;;;;1.40;0.52;;;2.30;99.90;;;;;;5093880;28;20097;-65
2023/03/05 04:34:28;;;;;;;5.55;0.60;;;2.60;99.90;;;;;;5093958;28;20059;-64
2023/03/05 04:36:53;;;;;;;0.80;0.63;;;2.30;99.90;;;;;;5109316;28;20040;-64
2023/03/05 04:39:22;;;;;;;4.65;0.70;;;2.50;99.90;;;;;;5093812;28;20044;-64
2023/03/05 04:41:47;;;;;;;1.65;0.30;;;2.60;99.90;;;;;;5093840;28;20042;-64
2023/03/05 04:44:13;;;;;;;1.52;0.38;;;2.60;99.90;;;;;;5093755;28;20119;-65
2023/03/05 04:46:39;;;;;;;2.17;0.38;;;3.50;99.90;;;;;;5093692;28;20123;-65
2023/03/05 04:49:05;;;;;;;2.28;0.43;;;2.60;99.90;;;;;;5093417;28;20447;-64
2023/03/05 04:51:30;;;;;;;3.47;0.60;;;2.60;99.90;;;;;;5093558;28;20036;-65
2023/03/05 04:53:56;;;;;;;0.70;0.45;;;2.50;99.90;;;;;;5093273;28;20395;-65
2023/03/05 04:56:22;;;;;;;4.15;0.68;;;2.50;99.90;;;;;;5093391;28;20032;-65
2023/03/05 04:58:48;;;;;;;0.68;0.50;;;2.50;99.90;;;;;;5092024;28;20068;-65
2023/03/05 05:01:13;;;;;;;0.25;0.25;;;2.20;99.90;;;;;;5093155;28;20117;-64
2023/03/05 05:03:39;;;;;;;2.38;0.70;;;2.40;99.90;;;;;;5093500;28;20040;-65
2023/03/05 05:06:05;;;;;;;3.92;0.50;;;2.40;99.90;;;;;;5093393;28;20039;-65
2023/03/05 05:08:30;;;;;;;2.13;0.40;;;2.40;99.90;;;;;;5093086;28;20399;-65
2023/03/05 05:11:02;;;;;;;0.57;0.50;;;2.10;99.90;;;;;;5093026;28;20043;-64
2023/03/05 05:13:28;;;;;;;0.40;0.40;;;2.40;99.90;;;;;;5093407;28;20036;-64
2023/03/05 05:15:54;;;;;;;1.27;0.43;;;2.40;99.90;;;;;;5091508;28;20059;-64
2023/03/05 05:18:20;;;;;;;2.75;0.60;;;2.40;99.90;;;;;;5092129;28;20048;-64
2023/03/05 05:20:46;;;;;;;5.68;0.70;;;2.30;99.90;;;;;;5093236;28;20040;-64
2023/03/05 05:23:12;;;;;;;0.63;0.30;;;2.40;99.90;;;;;;5092985;28;20075;-65
2023/03/05 05:25:38;;;;;;;0.40;0.40;;;2.40;99.90;;;;;;5091667;28;20451;-65
2023/03/05 05:28:04;;;;;;;0.55;0.40;;;2.30;99.90;;;;;;5108635;28;20046;-66
2023/03/05 05:30:30;;;;;;;0.30;0.30;;;2.30;99.90;;;;;;5093201;28;20536;-65
2023/03/05 05:32:55;;;;;;;2.75;0.57;;;2.30;99.90;;;;;;5093633;28;20043;-64
2023/03/05 05:35:21;;;;;;;0.82;0.55;;;2.30;99.90;;;;;;5097073;28;20040;-65
2023/03/05 05:37:47;;;;;;;5.90;0.68;;;2.40;99.90;;;;;;5078734;28;20067;-65
2023/03/05 05:40:13;;;;;;;0.90;0.70;;;2.40;99.90;;;;;;5097231;28;20043;-65
2023/03/05 05:42:38;;;;;;;1.33;0.60;;;2.20;99.90;;;;;;5096899;28;20068;-65
2023/03/05 05:45:05;;;;;;;1.38;0.40;;;2.30;99.90;;;;;;5097087;28;20075;-65
2023/03/05 05:47:30;;;;;;;0.28;0.28;;;2.50;99.90;;;;;;5097090;28;20044;-64
2023/03/05 05:49:56;;;;;;;0.30;0.30;;;2.40;99.90;;;;;;5097098;28;20395;-64
2023/03/05 05:52:22;;;;;;;0.30;0.30;;;2.40;99.90;;;;;;5097006;28;20043;-65
2023/03/05 05:54:47;;;;;;;0.93;0.40;;;2.50;99.90;;;;;;5095680;28;20040;-64
2023/03/05 05:57:13;;;;;;;3.63;0.40;;;2.60;99.90;;;;;;5096888;28;20388;-65
2023/03/05 05:59:40;;;;;;;1.02;0.43;;;2.30;99.90;;;;;;5096874;28;20047;-65
2023/03/05 06:02:09;;;;;;;0.40;0.40;;;2.40;99.90;;;;;;5096603;28;20047;-64
2023/03/05 06:04:36;;;;;;;0.25;0.25;;;2.50;99.90;;;;;;5095864;28;20043;-65
2023/03/05 06:07:02;;;;;;;2.33;0.70;;;2.40;99.90;;;;;;5096718;28;20042;-65
2023/03/05 06:09:29;;;;;;;0.80;0.50;;;2.40;99.90;;;;;;5096460;28;20376;-70
2023/03/05 06:11:54;;;;;;;0.20;0.20;;;2.30;99.90;;;;;;5096544;28;20041;-65
2023/03/05 06:14:20;;;;;;;1.00;0.73;;;2.20;99.90;;;;;;5096557;28;20089;-65
2023/03/05 06:16:45;;;;;;;0.65;0.32;;;2.30;99.90;;;;;;5096124;28;20048;-65
2023/03/05 06:19:12;;;;;;;0.20;0.20;;;2.20;99.90;;;;;;5096519;28;20051;-65
2023/03/05 06:21:38;;;;;;;0.25;0.20;;;2.20;99.90;;;;;;5096316;28;20044;-64
2023/03/05 06:24:05;;;;;;;1.65;0.30;;;2.20;99.90;;;;;;5094863;28;20441;-64
2023/03/05 06:26:31;;;;;;;0.43;0.25;;;2.30;99.90;;;;;;5096414;28;20403;-64
2023/03/05 06:29:00;;;;;;;0.50;0.50;;;2.10;99.90;;;;;;5096304;28;20415;-65
2023/03/05 06:31:27;;;;;;;0.40;0.20;;;2.00;99.90;;;;;;5095065;28;20480;-64
2023/03/05 06:33:55;;;;;;;0.40;0.35;;;2.10;99.90;;;;;;5096251;28;20047;-65
2023/03/05 06:36:23;;;;;;;0.40;0.35;;;1.90;99.90;;;;;;5096121;28;20040;-65
2023/03/05 06:38:49;;;;;;;0.95;0.20;;;2.00;99.90;;;;;;5096170;28;20043;-65
2023/03/05 06:41:18;;;;;;;2.03;0.63;;;2.20;99.90;;;;;;5096136;28;20411;-65
2023/03/05 06:43:46;;;;;;;0.63;0.20;;;2.00;99.90;;;;;;5095514;28;20040;-64
2023/03/05 06:46:23;;;;;;;1.05;0.20;;;2.00;99.90;;;;;;5095494;28;20436;-64
2023/03/05 06:48:50;;;;;;;2.53;0.47;;;2.10;99.90;;;;;;5094431;28;20185;-64
2023/03/05 06:51:22;;;;;;;1.55;0.50;;;2.10;99.90;;;;;;5095648;28;20121;-64
2023/03/05 06:53:48;;;;;;;2.20;0.50;;;2.10;99.90;;;;;;5095671;28;20032;-64
2023/03/05 06:56:15;;;;;;;0.93;0.30;;;2.30;99.90;;;;;;5095406;28;20036;-64
2023/03/05 06:58:42;;;;;;;3.45;0.60;;;2.30;99.90;;;;;;5095802;28;20523;-64
2023/03/05 07:01:08;;;;;;;2.83;0.40;;;2.10;99.90;;;;;;5095683;28;20081;-64
2023/03/05 07:03:35;;;;;;;0.60;0.30;;;2.10;99.90;;;;;;5095431;28;20044;-64
2023/03/05 07:06:09;;;;;;;1.63;0.63;;;2.10;99.90;;;;;;5110984;28;20044;-64
2023/03/05 07:08:35;;;;;;;1.15;0.50;;;2.30;99.90;;;;;;5095339;28;20044;-64
2023/03/05 07:11:02;;;;;;;4.60;0.50;;;2.30;99.90;;;;;;5095547;28;20407;-66
2023/03/05 07:13:28;;;;;;;0.47;0.30;;;2.60;99.90;;;;;;5095119;28;20076;-65
2023/03/05 07:15:54;;;;;;;3.22;0.52;;;2.40;99.90;;;;;;5095016;28;20048;-65
2023/03/05 07:18:19;;;;;;;0.65;0.63;;;2.40;99.90;;;;;;5093808;28;20134;-64
2023/03/05 07:20:45;;;;;;;2.38;0.63;;;2.60;99.90;;;;;;5095292;28;20483;-64
2023/03/05 07:23:11;;;;;;;4.03;0.65;;;2.50;99.90;;;;;;5095283;28;20448;-64
2023/03/05 07:25:37;;;;;;;1.60;0.50;;;2.70;99.90;;;;;;5095286;28;20040;-64
2023/03/05 07:28:06;;;;;;;1.27;0.65;;;2.60;99.90;;;;;;5095178;28;20467;-64
2023/03/05 07:30:33;;;;;;;0.50;0.43;;;2.50;99.90;;;;;;5094898;28;20036;-64
2023/03/05 07:32:59;;;;;;;3.78;0.50;;;2.50;99.90;;;;;;5095052;28;20032;-64
2023/03/05 07:35:24;;;;;;;0.32;0.32;;;2.80;99.90;;;;;;5095104;28;20036;-65
2023/03/05 07:37:51;;;;;;;2.22;0.60;;;2.80;99.90;;;;;;5094923;28;20036;-64
2023/03/05 07:40:17;;;;;;;0.17;0.17;;;2.90;99.90;;;;;;5094969;28;20511;-64
2023/03/05 07:42:42;;;;;;;3.10;0.40;;;3.10;99.90;;;;;;5094583;28;20032;-64
2023/03/05 07:45:09;;;;;;;1.05;0.60;;;3.10;99.90;;;;;;5110440;28;20040;-64
2023/03/05 07:47:35;;;;;;;2.53;0.60;;;3.10;99.90;;;;;;5094405;28;20036;-64
2023/03/05 07:50:01;;;;;;;1.80;0.73;;;3.30;99.90;;;;;;5094760;28;20040;-65
2023/03/05 07:52:27;;;;;;;0.38;0.38;;;3.30;99.90;;;;;;5093468;28;20479;-64
2023/03/05 07:54:52;;;;;;;1.88;0.52;;;3.30;99.90;;;;;;5094280;28;20093;-64
2023/03/05 07:57:18;;;;;;;0.30;0.30;;;3.50;99.90;;;;;;5092995;28;20432;-65
2023/03/05 07:59:43;;;;;;;4.43;0.60;;;3.60;99.90;;;;;;5094124;28;20085;-64
2023/03/05 08:02:11;;;;;;;2.83;0.50;;;3.70;99.90;;;;;;5094437;28;20036;-66
2023/03/05 08:04:37;;;;;;;5.35;0.60;;;3.80;99.90;;;;;;5094184;28;20097;-65
2023/03/05 08:07:03;;;;;;;0.30;0.30;;;3.90;99.90;;;;;;5092750;28;20036;-65
2023/03/05 08:09:29;;;;;;;7.53;0.70;;;3.90;99.90;;;;;;5093994;28;20044;-65
2023/03/05 08:11:55;;;;;;;0.85;0.30;;;4.00;99.90;;;;;;5094106;28;20115;-65
2023/03/05 08:14:21;;;;;;;1.17;0.43;;;4.00;99.90;;;;;;5094097;28;20050;-66
2023/03/05 08:16:50;;;;;;;0.52;0.45;;;4.00;99.90;;;;;;5092437;28;20134;-65
2023/03/05 08:19:20;;;;;;;3.55;0.50;;;4.10;99.90;;;;;;5093836;28;20040;-65
2023/03/05 08:21:46;;;;;;;0.30;0.30;;;4.10;99.90;;;;;;5075565;28;20036;-71
2023/03/05 08:24:12;;;;;;;3.70;0.45;;;4.10;99.90;;;;;;5092395;28;20399;-68
2023/03/05 08:26:38;;;;;;;1.88;0.30;;;4.20;99.90;;;;;;5092303;28;20449;-64
2023/03/05 08:29:05;;;;;;;1.02;0.40;;;4.20;99.90;;;;;;5092658;28;20044;-67
2023/03/05 08:31:31;;;;;;;0.63;0.38;;;4.30;99.90;;;;;;5092268;28;20054;-64
2023/03/05 08:33:59;;;;;;;2.67;0.75;;;4.40;99.90;;;;;;5092464;28;20035;-64
2023/03/05 08:36:25;;;;;;;1.58;0.70;;;4.40;99.90;;;;;;5093687;28;20063;-64
2023/03/05 08:38:51;;;;;;;4.45;0.57;;;4.40;99.90;;;;;;5092336;28;20043;-64
2023/03/05 08:41:18;;;;;;;0.63;0.30;;;4.50;99.90;;;;;;5093505;28;20115;-64
2023/03/05 08:43:44;;;;;;;0.57;0.32;;;4.50;99.90;;;;;;5093516;28;20040;-64
2023/03/05 08:46:13;;;;;;;3.13;0.85;;;4.50;99.90;;;;;;5093550;28;20479;-65
2023/03/05 08:48:39;;;;;;;0.88;0.50;;;4.50;99.90;;;;;;5093286;28;20043;-64
2023/03/05 08:51:11;;;;;;;0.70;0.47;;;4.50;99.90;;;;;;5093580;28;20132;-64
2023/03/05 08:53:38;;;;;;;1.02;0.60;;;4.50;99.90;;;;;;5091924;28;20047;-66
2023/03/05 08:56:03;;;;;;;0.80;0.77;;;4.50;99.90;;;;;;5091712;28;20043;-65
2023/03/05 08:58:30;;;;;;;2.38;0.55;;;4.60;99.90;;;;;;5093553;28;20044;-64
2023/03/05 09:00:55;;;;;;;0.82;0.40;;;4.70;99.90;;;;;;5092223;28;20047;-69
2023/03/05 09:03:21;;;;;;;0.50;0.30;;;4.80;99.90;;;;;;5091892;28;20044;-64
2023/03/05 09:05:47;;;;;;;1.27;0.50;;;4.80;99.90;;;;;;5091902;28;20042;-64
2023/03/05 09:08:13;;;;;;;5.55;0.75;;;5.00;99.90;;;;;;5093021;28;20394;-64
2023/03/05 09:10:41;;;;;;;0.47;0.40;;;5.10;99.90;;;;;;5093419;28;20396;-64
2023/03/05 09:13:07;;;;;;;0.20;0.20;;;5.20;99.90;;;;;;5093413;28;20543;-64
2023/03/05 09:15:33;;;;;;;4.55;0.47;;;5.20;99.90;;;;;;5091622;28;20135;-74
2023/03/05 09:18:00;;;;;;;4.93;0.50;;;5.20;99.90;;;;;;5075279;28;20172;-63
2023/03/05 09:20:25;;;;;;;4.70;0.57;;;5.20;99.90;;;;;;5091700;28;20080;-64
2023/03/05 09:22:51;;;;;;;5.28;0.70;;;5.20;99.90;;;;;;5092923;28;20089;-64
2023/03/05 09:25:17;;;;;;;3.08;0.60;;;5.20;99.90;;;;;;5108633;28;20036;-65
2023/03/05 09:27:44;;;;;;;0.70;0.32;;;5.40;99.90;;;;;;5093216;28;20450;-64
2023/03/05 09:30:11;;;;;;;0.73;0.40;;;5.50;99.90;;;;;;5093187;28;20093;-65
2023/03/05 09:32:37;;;;;;;2.58;0.63;;;5.70;99.90;;;;;;5093015;28;20424;-65
2023/03/05 09:35:03;;;;;;;1.00;0.50;;;5.70;99.90;;;;;;5092800;28;20083;-65
2023/03/05 09:37:29;;;;;;;0.70;0.47;;;5.60;99.90;;;;;;5092835;28;20044;-64
2023/03/05 09:39:56;;;;;;;3.38;0.55;;;5.60;99.90;;;;;;5092806;28;20032;-64
2023/03/05 09:42:46;;;;;;;2.42;0.40;;;5.80;99.90;;;;;;5092519;28;20039;-65
2023/03/05 09:45:26;;;;;;;0.98;0.52;;;5.90;99.90;;;;;;5091394;28;20071;-65
2023/03/05 09:48:10;;;;;;;2.08;0.60;;;6.10;99.90;;;;;;5092716;28;20040;-65
2023/03/05 09:50:42;;;;;;;4.10;0.70;;;6.30;99.90;;;;;;5092762;28;20051;-65
2023/03/05 09:53:39;;;;;;;2.95;0.50;;;6.50;99.90;;;;;;5092455;28;20047;-66
2023/03/05 09:56:36;;;;;;;0.55;0.38;;;6.80;99.90;;;;;;5074193;28;20097;-65
2023/03/05 09:59:29;;;;;;;2.47;0.32;;;6.70;99.90;;;;;;5080330;28;20052;-65
2023/03/05 10:02:11;;;;;;;6.65;0.55;;;6.80;17.60;;;;;;5064207;28;20110;-65
2023/03/05 10:05:11;;;;;;;0.68;0.40;;;6.70;12.10;;;;;;5091157;28;20028;-65
2023/03/05 10:07:42;;;;;;;0.80;0.30;;;6.40;36.60;;;;;;5092666;28;20047;-65
2023/03/05 10:10:26;;;;;;;0.28;0.28;;;6.00;91.50;;;;;;5091086;28;20036;-65
2023/03/05 10:12:58;;;;;;;0.52;0.38;;;5.80;97.20;;;;;;5092313;28;20079;-65
2023/03/05 10:15:39;;;;;;;0.68;0.20;;;5.80;98.30;;;;;;5090834;28;20051;-65
2023/03/05 10:18:27;;;;;;;0.10;0.10;;;5.70;95.60;;;;;;5092238;28;20084;-65
2023/03/05 10:21:00;;;;;;;0.55;0.30;;;5.50;90.50;;;;;;5095626;28;20074;-65
2023/03/05 10:23:50;;;;;;;0.57;0.30;;;5.60;94.60;;;;;;5096319;28;20434;-66
2023/03/05 10:26:45;;;;;;;2.35;0.20;;;5.60;96.10;;;;;;5095957;28;20044;-64
2023/03/05 10:29:45;;;;;;;1.35;0.30;;;5.60;96.70;;;;;;5111964;28;20082;-65
2023/03/05 10:32:20;;;;;;;0.50;0.50;;;5.60;94.10;;;;;;5095713;28;20040;-65
2023/03/05 10:35:07;;;;;;;0.70;0.30;;;5.50;94.30;;;;;;5095961;28;20044;-65
2023/03/05 10:38:11;;;;;;;0.15;0.15;;;5.50;97.60;;;;;;5095983;28;20100;-65
2023/03/05 10:40:57;;;;;;;0.20;0.20;;;5.60;97.10;;;;;;5085899;28;20051;-65
2023/03/05 10:43:33;;;;;;;0.75;0.30;;;5.80;91.60;;;;;;5095939;28;20046;-63
2023/03/05 10:46:02;;;;;;;0.30;0.30;;;6.10;90.10;;;;;;5095825;28;20476;-63
2023/03/05 10:48:38;;;;;;;0.20;0.20;;;7.40;84.20;;;;;;5095797;28;20038;-63
2023/03/05 10:51:24;;;;;;;0.82;0.28;;;5.90;76.80;;;;;;5095726;28;20103;-63
2023/03/05 10:53:58;;;;;;;0.22;0.22;;;6.00;62.60;;;;;;5084583;28;20055;-63
2023/03/05 10:56:27;;;;;;;0.75;0.43;;;6.00;81.10;;;;;;5095540;28;20040;-63
2023/03/05 10:58:53;;;;;;;0.90;0.40;;;6.10;84.20;;;;;;5095592;28;20036;-63
2023/03/05 11:01:20;;;;;;;0.55;0.40;;;6.00;64.60;;;;;;5095581;28;20182;-63
2023/03/05 11:04:00;;;;;;;1.77;0.30;;;6.00;62.30;;;;;;5095512;28;20036;-63
2023/03/05 11:06:44;;;;;;;1.55;0.55;;;6.00;73.10;;;;;;5095449;28;20032;-63
2023/03/05 11:09:27;;;;;;;0.30;0.28;;;6.10;71.90;;;;;;5095185;28;20048;-63
2023/03/05 11:12:18;;;;;;;3.47;0.60;;;6.40;43.30;;;;;;5095003;28;20040;-63
2023/03/05 11:15:04;;;;;;;0.30;0.30;;;6.60;43.40;;;;;;5095336;28;20059;-63
2023/03/05 11:17:32;;;;;;;4.18;0.50;;;7.50;38.20;;;;;;5093432;28;20056;-63
2023/03/05 11:20:26;;;;;;;4.68;0.60;;;7.00;39.60;;;;;;5095163;28;20038;-63
2023/03/05 11:23:16;;;;;;;0.47;0.28;;;7.10;1.00;;;;;;5094806;28;20046;-63
2023/03/05 11:25:59;;;;;;;0.90;0.52;;;7.50;6.10;;;;;;5083718;28;20055;-63
2023/03/05 11:28:36;;;;;;;0.43;0.30;;;8.20;1.00;;;;;;5095013;28;20475;-64
2023/03/05 11:31:20;;;;;;;4.82;0.43;;;7.70;1.00;;;;;;5094706;28;20583;-63
2023/03/05 11:34:04;;;;;;;0.55;0.38;;;8.20;1.00;;;;;;5093425;28;20381;-63
2023/03/05 11:36:36;;;;;;;0.30;0.20;;;8.30;1.00;;;;;;5094831;28;20036;-63
2023/03/05 11:39:04;;;;;;;;;;;8.50;1.00;;;;;;5095192;28;20048;-63
2023/03/05 11:41:51;;;;;;;1.20;0.60;;;8.50;1.00;;;;;;5094671;28;20289;-64
2023/03/05 11:44:28;;;;;;;1.70;0.60;;;8.40;1.00;;;;;;5084312;28;20075;-66
2023/03/05 11:47:00;;;;;;;1.92;0.40;;;10.70;1.00;;;;;;5094607;28;20123;-65
2023/03/05 11:49:30;;;;;;;0.43;0.35;;;8.10;99.90;;;;;;5110310;28;20047;-62
2023/03/05 11:52:14;;;;;;;3.83;0.55;;;8.00;99.90;;;;;;5094556;28;20106;-63
2023/03/05 11:54:54;;;;;;;3.83;0.60;;;9.00;99.90;;;;;;5094107;28;20054;-63
2023/03/05 11:57:22;;;;;;;0.50;0.40;;;8.50;99.90;;;;;;5094071;28;20140;-63
2023/03/05 11:59:50;;;;;;;1.35;0.40;;;8.50;99.90;;;;;;5094367;28;20090;-64
2023/03/05 12:02:25;;;;;;;2.35;0.93;;;8.60;99.90;;;;;;5093119;28;20123;-63
2023/03/05 12:04:50;;;;;;;1.65;0.40;;;8.60;99.90;;;;;;5094248;28;20070;-63
2023/03/05 12:07:35;;;;;;;1.00;0.43;;;8.70;1.00;;;;;;5093882;28;20071;-63
2023/03/05 12:10:01;;;;;;;0.38;0.20;;;8.50;99.90;;;;;;5094204;28;20404;-64
2023/03/05 12:12:48;;;;;;;4.57;0.57;;;8.40;99.90;;;;;;5094149;28;20032;-63
2023/03/05 12:15:17;;;;;;;0.88;0.45;;;8.50;1.00;;;;;;5093805;28;20044;-63
2023/03/05 12:18:06;;;;;;;0.95;0.40;;;8.80;99.90;;;;;;5109284;28;20048;-62
2023/03/05 12:21:13;;;;;;;0.30;0.30;;;9.00;1.00;;;;;;5094022;28;20032;-63
2023/03/05 12:24:03;;;;;;;0.70;0.38;;;9.00;99.90;;;;;;5094021;28;20035;-62
2023/03/05 12:27:03;;;;;;;0.63;0.25;;;8.80;99.90;;;;;;5093618;28;20036;-63
2023/03/05 12:29:50;;;;;;;1.92;0.52;;;8.60;99.90;;;;;;5093547;28;20131;-63
2023/03/05 12:32:42;;;;;;;0.57;0.32;;;8.40;99.90;;;;;;5093724;28;20047;-65
2023/03/05 12:35:36;;;;;;;1.00;0.35;;;8.30;1.00;;;;;;5085110;28;20410;-63
2023/03/05 12:38:05;;;;;;;1.65;0.35;;;8.30;99.90;;;;;;5090973;28;20048;-63
2023/03/05 12:40:32;;;;;;;0.47;0.45;;;8.20;99.90;;;;;;5093274;28;20043;-63
2023/03/05 12:43:24;;;;;;;1.85;0.60;;;8.40;99.90;;;;;;5092929;28;20498;-62
2023/03/05 12:45:51;;;;;;;0.20;0.20;;;8.00;1.00;;;;;;5093095;28;20032;-67
2023/03/05 12:48:17;;;;;;;1.95;0.47;;;7.60;99.90;;;;;;5093550;28;20510;-62
2023/03/05 12:50:43;;;;;;;0.30;0.30;;;7.60;99.90;;;;;;5093105;28;20040;-62
2023/03/05 12:53:16;;;;;;;1.70;0.40;;;8.00;1.00;;;;;;5093410;28;20527;-62
2023/03/05 12:55:51;;;;;;;0.40;0.40;;;7.20;99.90;;;;;;5093440;28;20048;-64
2023/03/05 12:58:31;;;;;;;1.25;0.50;;;7.10;99.90;;;;;;5093343;28;20036;-63
2023/03/05 13:01:15;;;;;;;0.30;0.30;;;7.10;99.90;;;;;;5092991;28;20039;-62
2023/03/05 13:03:58;;;;;;;0.20;0.20;;;7.10;1.00;;;;;;5093218;28;20039;-62
2023/03/05 13:06:31;;;;;;;0.38;0.20;;;7.20;1.00;;;;;;5091785;28;20048;-62
2023/03/05 13:09:21;;;;;;;1.45;0.25;;;7.20;1.00;;;;;;5091627;28;20411;-63
2023/03/05 13:11:50;;;;;;;1.85;0.43;;;7.20;99.90;;;;;;5092879;28;20040;-63
2023/03/05 13:14:39;;;;;;;1.17;0.32;;;7.60;99.90;;;;;;5093073;28;20044;-68